sensor_id;sensor_type;location;lat;lon;timestamp;P1;durP1;ratioP1;P2;durP2;ratioP2
65658;SDS011;60181;53.258;6.932;2023-07-31T00:02:09;7.20;;;2.90;;
65658;SDS011;60181;53.258;6.932;2023-07-31T00:06:19;5.20;;;3.00;;
65658;SDS011;60181;53.258;6.932;2023-07-31T00:10:29;5.20;;;3.00;;
65658;SDS011;60181;53.258;6.932;2023-07-31T00:14:39;5.40;;;2.90;;
65658;SDS011;60181;53.258;6.932;2023-07-31T00:18:49;5.40;;;2.90;;
65658;SDS011;60181;53.258;6.932;2023-07-31T00:22:59;5.40;;;2.90;;
65658;SDS011;60181;53.258;6.932;2023-07-31T00:27:09;7.50;;;2.90;;
65658;SDS011;60181;53.258;6.932;2023-07-31T00:31:19;7.50;;;2.90;;
65658;SDS011;60181;53.258;6.932;2023-07-31T00:35:29;5.20;;;2.50;;
65658;SDS011;60181;53.258;6.932;2023-07-31T00:39:39;5.20;;;2.50;;
65658;SDS011;60181;53.258;6.932;2023-07-31T00:43:49;6.90;;;2.50;;
65658;SDS011;60181;53.258;6.932;2023-07-31T00:47:59;6.90;;;2.50;;
65658;SDS011;60181;53.258;6.932;2023-07-31T00:52:09;6.90;;;2.50;;
65658;SDS011;60181;53.258;6.932;2023-07-31T00:56:19;4.70;;;2.60;;
65658;SDS011;60181;53.258;6.932;2023-07-31T01:00:29;4.70;;;2.60;;
65658;SDS011;60181;53.258;6.932;2023-07-31T01:04:39;4.90;;;2.40;;
65658;SDS011;60181;53.258;6.932;2023-07-31T01:12:59;4.90;;;2.40;;
65658;SDS011;60181;53.258;6.932;2023-07-31T01:17:09;7.40;;;2.40;;
65658;SDS011;60181;53.258;6.932;2023-07-31T01:21:23;7.40;;;2.40;;
65658;SDS011;60181;53.258;6.932;2023-07-31T01:25:42;4.50;;;2.30;;
65658;SDS011;60181;53.258;6.932;2023-07-31T01:29:59;4.50;;;2.30;;
65658;SDS011;60181;53.258;6.932;2023-07-31T01:33:49;3.30;;;2.00;;
65658;SDS011;60181;53.258;6.932;2023-07-31T01:37:59;3.30;;;2.00;;
65658;SDS011;60181;53.258;6.932;2023-07-31T01:42:09;3.30;;;2.00;;
65658;SDS011;60181;53.258;6.932;2023-07-31T01:46:19;7.10;;;2.20;;
65658;SDS011;60181;53.258;6.932;2023-07-31T01:50:29;7.10;;;2.20;;
65658;SDS011;60181;53.258;6.932;2023-07-31T01:54:39;4.20;;;2.10;;
65658;SDS011;60181;53.258;6.932;2023-07-31T01:58:49;4.20;;;2.10;;
65658;SDS011;60181;53.258;6.932;2023-07-31T02:02:59;4.20;;;2.10;;
65658;SDS011;60181;53.258;6.932;2023-07-31T02:07:09;4.30;;;2.00;;
65658;SDS011;60181;53.258;6.932;2023-07-31T02:11:19;4.30;;;2.00;;
65658;SDS011;60181;53.258;6.932;2023-07-31T02:15:29;4.90;;;1.80;;
65658;SDS011;60181;53.258;6.932;2023-07-31T02:19:39;4.90;;;1.80;;
65658;SDS011;60181;53.258;6.932;2023-07-31T02:23:49;4.90;;;1.70;;
65658;SDS011;60181;53.258;6.932;2023-07-31T02:27:59;4.90;;;1.70;;
65658;SDS011;60181;53.258;6.932;2023-07-31T02:32:09;4.90;;;1.70;;
65658;SDS011;60181;53.258;6.932;2023-07-31T02:36:19;3.60;;;1.60;;
65658;SDS011;60181;53.258;6.932;2023-07-31T02:40:29;3.60;;;1.60;;
65658;SDS011;60181;53.258;6.932;2023-07-31T02:44:39;3.30;;;1.50;;
65658;SDS011;60181;53.258;6.932;2023-07-31T02:48:49;3.30;;;1.50;;
65658;SDS011;60181;53.258;6.932;2023-07-31T02:52:59;3.30;;;1.50;;
65658;SDS011;60181;53.258;6.932;2023-07-31T02:57:09;2.50;;;1.30;;
65658;SDS011;60181;53.258;6.932;2023-07-31T03:01:19;2.50;;;1.30;;
65658;SDS011;60181;53.258;6.932;2023-07-31T03:05:29;2.10;;;1.20;;
65658;SDS011;60181;53.258;6.932;2023-07-31T03:09:39;2.10;;;1.20;;
65658;SDS011;60181;53.258;6.932;2023-07-31T03:13:49;3.80;;;1.30;;
65658;SDS011;60181;53.258;6.932;2023-07-31T03:17:59;3.80;;;1.30;;
65658;SDS011;60181;53.258;6.932;2023-07-31T03:22:09;3.80;;;1.30;;
65658;SDS011;60181;53.258;6.932;2023-07-31T03:26:19;3.00;;;1.00;;
65658;SDS011;60181;53.258;6.932;2023-07-31T03:30:29;3.00;;;1.00;;
65658;SDS011;60181;53.258;6.932;2023-07-31T03:34:39;4.80;;;1.10;;
65658;SDS011;60181;53.258;6.932;2023-07-31T03:38:49;4.80;;;1.10;;
65658;SDS011;60181;53.258;6.932;2023-07-31T03:42:59;4.80;;;1.10;;
65658;SDS011;60181;53.258;6.932;2023-07-31T03:47:09;3.50;;;1.00;;
65658;SDS011;60181;53.258;6.932;2023-07-31T03:51:19;3.50;;;1.00;;
65658;SDS011;60181;53.258;6.932;2023-07-31T03:55:29;1.30;;;0.90;;
65658;SDS011;60181;53.258;6.932;2023-07-31T03:59:39;1.30;;;0.90;;
65658;SDS011;60181;53.258;6.932;2023-07-31T04:03:49;6.50;;;1.00;;
65658;SDS011;60181;53.258;6.932;2023-07-31T04:07:59;6.50;;;1.00;;
65658;SDS011;60181;53.258;6.932;2023-07-31T04:12:09;6.50;;;1.00;;
65658;SDS011;60181;53.258;6.932;2023-07-31T04:16:19;5.40;;;1.00;;
65658;SDS011;60181;53.258;6.932;2023-07-31T04:20:29;5.40;;;1.00;;
65658;SDS011;60181;53.258;6.932;2023-07-31T04:24:39;8.10;;;1.20;;
65658;SDS011;60181;53.258;6.932;2023-07-31T04:28:49;8.10;;;1.20;;
65658;SDS011;60181;53.258;6.932;2023-07-31T04:32:59;8.10;;;1.20;;
65658;SDS011;60181;53.258;6.932;2023-07-31T04:37:09;5.80;;;1.10;;
65658;SDS011;60181;53.258;6.932;2023-07-31T04:41:19;5.80;;;1.10;;
65658;SDS011;60181;53.258;6.932;2023-07-31T04:45:29;2.90;;;1.60;;
65658;SDS011;60181;53.258;6.932;2023-07-31T04:49:39;2.90;;;1.60;;
65658;SDS011;60181;53.258;6.932;2023-07-31T04:53:49;5.80;;;1.70;;
65658;SDS011;60181;53.258;6.932;2023-07-31T04:57:59;5.80;;;1.70;;
65658;SDS011;60181;53.258;6.932;2023-07-31T05:02:09;5.80;;;1.70;;
65658;SDS011;60181;53.258;6.932;2023-07-31T05:06:19;5.20;;;2.10;;
65658;SDS011;60181;53.258;6.932;2023-07-31T05:10:29;5.20;;;2.10;;
65658;SDS011;60181;53.258;6.932;2023-07-31T05:14:39;4.80;;;2.20;;
65658;SDS011;60181;53.258;6.932;2023-07-31T05:18:49;4.80;;;2.20;;
65658;SDS011;60181;53.258;6.932;2023-07-31T05:22:59;4.80;;;2.20;;
65658;SDS011;60181;53.258;6.932;2023-07-31T05:27:09;5.20;;;2.20;;
65658;SDS011;60181;53.258;6.932;2023-07-31T05:31:19;5.20;;;2.20;;
65658;SDS011;60181;53.258;6.932;2023-07-31T05:35:29;3.40;;;2.00;;
65658;SDS011;60181;53.258;6.932;2023-07-31T05:39:38;3.40;;;2.00;;
65658;SDS011;60181;53.258;6.932;2023-07-31T05:43:49;4.70;;;1.90;;
65658;SDS011;60181;53.258;6.932;2023-07-31T05:47:58;4.70;;;1.90;;
65658;SDS011;60181;53.258;6.932;2023-07-31T05:52:08;4.70;;;1.90;;
65658;SDS011;60181;53.258;6.932;2023-07-31T05:56:18;3.50;;;2.00;;
65658;SDS011;60181;53.258;6.932;2023-07-31T06:00:29;3.50;;;2.00;;
65658;SDS011;60181;53.258;6.932;2023-07-31T06:04:38;3.20;;;2.00;;
65658;SDS011;60181;53.258;6.932;2023-07-31T06:08:48;3.20;;;2.00;;
65658;SDS011;60181;53.258;6.932;2023-07-31T06:12:58;3.20;;;2.00;;
65658;SDS011;60181;53.258;6.932;2023-07-31T06:17:08;3.90;;;1.90;;
65658;SDS011;60181;53.258;6.932;2023-07-31T06:21:18;3.90;;;1.90;;
65658;SDS011;60181;53.258;6.932;2023-07-31T06:25:28;2.70;;;1.70;;
65658;SDS011;60181;53.258;6.932;2023-07-31T06:29:38;2.70;;;1.70;;
65658;SDS011;60181;53.258;6.932;2023-07-31T06:33:49;3.10;;;1.90;;
65658;SDS011;60181;53.258;6.932;2023-07-31T06:37:58;3.10;;;1.90;;
65658;SDS011;60181;53.258;6.932;2023-07-31T06:42:08;3.10;;;1.90;;
65658;SDS011;60181;53.258;6.932;2023-07-31T06:46:18;2.80;;;1.70;;
65658;SDS011;60181;53.258;6.932;2023-07-31T06:50:28;2.80;;;1.70;;
65658;SDS011;60181;53.258;6.932;2023-07-31T06:54:38;3.90;;;1.80;;
65658;SDS011;60181;53.258;6.932;2023-07-31T06:58:48;3.90;;;1.80;;
65658;SDS011;60181;53.258;6.932;2023-07-31T07:02:59;3.90;;;1.80;;
65658;SDS011;60181;53.258;6.932;2023-07-31T07:07:08;3.20;;;1.80;;
65658;SDS011;60181;53.258;6.932;2023-07-31T07:11:18;3.20;;;1.80;;
65658;SDS011;60181;53.258;6.932;2023-07-31T07:15:28;3.10;;;1.70;;
65658;SDS011;60181;53.258;6.932;2023-07-31T07:19:41;3.10;;;1.70;;
65658;SDS011;60181;53.258;6.932;2023-07-31T07:23:48;3.20;;;1.80;;
65658;SDS011;60181;53.258;6.932;2023-07-31T07:27:58;3.20;;;1.80;;
65658;SDS011;60181;53.258;6.932;2023-07-31T07:32:08;3.20;;;1.80;;
65658;SDS011;60181;53.258;6.932;2023-07-31T07:36:18;2.10;;;1.70;;
65658;SDS011;60181;53.258;6.932;2023-07-31T07:40:28;2.10;;;1.70;;
65658;SDS011;60181;53.258;6.932;2023-07-31T07:44:38;3.40;;;1.70;;
65658;SDS011;60181;53.258;6.932;2023-07-31T07:48:48;3.40;;;1.70;;
65658;SDS011;60181;53.258;6.932;2023-07-31T07:52:58;3.40;;;1.70;;
65658;SDS011;60181;53.258;6.932;2023-07-31T07:57:08;16.30;;;2.40;;
65658;SDS011;60181;53.258;6.932;2023-07-31T08:01:19;16.30;;;2.40;;
65658;SDS011;60181;53.258;6.932;2023-07-31T08:05:28;9.30;;;3.20;;
65658;SDS011;60181;53.258;6.932;2023-07-31T08:09:38;9.30;;;3.20;;
65658;SDS011;60181;53.258;6.932;2023-07-31T08:13:49;6.10;;;3.00;;
65658;SDS011;60181;53.258;6.932;2023-07-31T08:17:58;6.10;;;3.00;;
65658;SDS011;60181;53.258;6.932;2023-07-31T08:22:08;6.10;;;3.00;;
65658;SDS011;60181;53.258;6.932;2023-07-31T08:26:19;5.60;;;3.10;;
65658;SDS011;60181;53.258;6.932;2023-07-31T08:30:28;5.60;;;3.10;;
65658;SDS011;60181;53.258;6.932;2023-07-31T08:34:38;7.60;;;3.50;;
65658;SDS011;60181;53.258;6.932;2023-07-31T08:38:48;7.60;;;3.50;;
65658;SDS011;60181;53.258;6.932;2023-07-31T08:42:58;7.60;;;3.50;;
65658;SDS011;60181;53.258;6.932;2023-07-31T08:47:08;6.00;;;3.30;;
65658;SDS011;60181;53.258;6.932;2023-07-31T08:51:18;6.00;;;3.30;;
65658;SDS011;60181;53.258;6.932;2023-07-31T08:55:28;6.80;;;3.40;;
65658;SDS011;60181;53.258;6.932;2023-07-31T08:59:38;6.80;;;3.40;;
65658;SDS011;60181;53.258;6.932;2023-07-31T09:03:48;6.30;;;3.30;;
65658;SDS011;60181;53.258;6.932;2023-07-31T09:08:00;6.30;;;3.30;;
65658;SDS011;60181;53.258;6.932;2023-07-31T09:12:08;6.30;;;3.30;;
65658;SDS011;60181;53.258;6.932;2023-07-31T09:16:18;5.10;;;3.40;;
65658;SDS011;60181;53.258;6.932;2023-07-31T09:20:28;5.10;;;3.40;;
65658;SDS011;60181;53.258;6.932;2023-07-31T09:24:38;6.40;;;3.40;;
65658;SDS011;60181;53.258;6.932;2023-07-31T09:28:48;6.40;;;3.40;;
65658;SDS011;60181;53.258;6.932;2023-07-31T09:33:02;6.40;;;3.40;;
65658;SDS011;60181;53.258;6.932;2023-07-31T09:37:08;6.20;;;3.40;;
65658;SDS011;60181;53.258;6.932;2023-07-31T09:41:18;6.20;;;3.40;;
65658;SDS011;60181;53.258;6.932;2023-07-31T09:45:28;5.60;;;3.30;;
65658;SDS011;60181;53.258;6.932;2023-07-31T09:49:38;5.60;;;3.30;;
65658;SDS011;60181;53.258;6.932;2023-07-31T09:53:49;6.70;;;3.70;;
65658;SDS011;60181;53.258;6.932;2023-07-31T09:57:58;6.70;;;3.70;;
65658;SDS011;60181;53.258;6.932;2023-07-31T10:02:09;6.70;;;3.70;;
65658;SDS011;60181;53.258;6.932;2023-07-31T10:06:18;6.50;;;3.80;;
65658;SDS011;60181;53.258;6.932;2023-07-31T10:10:28;6.50;;;3.80;;
65658;SDS011;60181;53.258;6.932;2023-07-31T10:14:38;6.50;;;3.50;;
65658;SDS011;60181;53.258;6.932;2023-07-31T10:18:48;6.50;;;3.50;;
65658;SDS011;60181;53.258;6.932;2023-07-31T10:22:58;6.50;;;3.50;;
65658;SDS011;60181;53.258;6.932;2023-07-31T10:27:09;6.60;;;3.80;;
65658;SDS011;60181;53.258;6.932;2023-07-31T10:31:18;6.60;;;3.80;;
65658;SDS011;60181;53.258;6.932;2023-07-31T10:35:28;6.20;;;3.80;;
65658;SDS011;60181;53.258;6.932;2023-07-31T10:39:38;6.20;;;3.80;;
65658;SDS011;60181;53.258;6.932;2023-07-31T10:43:48;6.80;;;4.10;;
65658;SDS011;60181;53.258;6.932;2023-07-31T10:48:05;6.80;;;4.10;;
65658;SDS011;60181;53.258;6.932;2023-07-31T10:52:10;6.80;;;4.10;;
65658;SDS011;60181;53.258;6.932;2023-07-31T10:56:18;7.30;;;4.30;;
65658;SDS011;60181;53.258;6.932;2023-07-31T11:00:28;7.30;;;4.30;;
65658;SDS011;60181;53.258;6.932;2023-07-31T11:04:38;6.70;;;4.00;;
65658;SDS011;60181;53.258;6.932;2023-07-31T11:08:49;6.70;;;4.00;;
65658;SDS011;60181;53.258;6.932;2023-07-31T11:12:58;6.70;;;4.00;;
65658;SDS011;60181;53.258;6.932;2023-07-31T11:17:08;6.90;;;4.20;;
65658;SDS011;60181;53.258;6.932;2023-07-31T11:21:19;6.90;;;4.20;;
65658;SDS011;60181;53.258;6.932;2023-07-31T11:25:29;10.20;;;6.10;;
65658;SDS011;60181;53.258;6.932;2023-07-31T11:29:38;10.20;;;6.10;;
65658;SDS011;60181;53.258;6.932;2023-07-31T11:33:48;10.40;;;6.20;;
65658;SDS011;60181;53.258;6.932;2023-07-31T11:37:58;10.40;;;6.20;;
65658;SDS011;60181;53.258;6.932;2023-07-31T11:42:08;10.40;;;6.20;;
65658;SDS011;60181;53.258;6.932;2023-07-31T11:46:18;10.10;;;5.90;;
65658;SDS011;60181;53.258;6.932;2023-07-31T11:50:28;10.10;;;5.90;;
65658;SDS011;60181;53.258;6.932;2023-07-31T11:54:39;9.10;;;6.00;;
65658;SDS011;60181;53.258;6.932;2023-07-31T11:58:52;9.10;;;6.00;;
65658;SDS011;60181;53.258;6.932;2023-07-31T12:02:58;9.10;;;6.00;;
65658;SDS011;60181;53.258;6.932;2023-07-31T12:07:08;11.20;;;5.80;;
65658;SDS011;60181;53.258;6.932;2023-07-31T12:11:18;11.20;;;5.80;;
65658;SDS011;60181;53.258;6.932;2023-07-31T12:15:34;9.50;;;5.80;;
65658;SDS011;60181;53.258;6.932;2023-07-31T12:19:38;9.50;;;5.80;;
65658;SDS011;60181;53.258;6.932;2023-07-31T12:23:48;11.90;;;6.20;;
65658;SDS011;60181;53.258;6.932;2023-07-31T12:28:03;11.90;;;6.20;;
65658;SDS011;60181;53.258;6.932;2023-07-31T12:32:23;11.90;;;6.20;;
65658;SDS011;60181;53.258;6.932;2023-07-31T12:36:20;10.20;;;6.00;;
65658;SDS011;60181;53.258;6.932;2023-07-31T12:40:28;10.20;;;6.00;;
65658;SDS011;60181;53.258;6.932;2023-07-31T12:44:38;9.70;;;5.70;;
65658;SDS011;60181;53.258;6.932;2023-07-31T12:48:48;9.70;;;5.70;;
65658;SDS011;60181;53.258;6.932;2023-07-31T12:52:58;9.70;;;5.70;;
65658;SDS011;60181;53.258;6.932;2023-07-31T12:57:08;8.40;;;5.20;;
65658;SDS011;60181;53.258;6.932;2023-07-31T13:01:18;8.40;;;5.20;;
65658;SDS011;60181;53.258;6.932;2023-07-31T13:05:28;9.80;;;5.10;;
65658;SDS011;60181;53.258;6.932;2023-07-31T13:09:38;9.80;;;5.10;;
65658;SDS011;60181;53.258;6.932;2023-07-31T13:13:48;8.50;;;5.40;;
65658;SDS011;60181;53.258;6.932;2023-07-31T13:17:58;8.50;;;5.40;;
65658;SDS011;60181;53.258;6.932;2023-07-31T13:22:08;8.50;;;5.40;;
65658;SDS011;60181;53.258;6.932;2023-07-31T13:26:18;9.10;;;5.50;;
65658;SDS011;60181;53.258;6.932;2023-07-31T13:30:28;9.10;;;5.50;;
65658;SDS011;60181;53.258;6.932;2023-07-31T13:34:38;8.00;;;5.20;;
65658;SDS011;60181;53.258;6.932;2023-07-31T13:38:48;8.00;;;5.20;;
65658;SDS011;60181;53.258;6.932;2023-07-31T13:42:58;8.00;;;5.20;;
65658;SDS011;60181;53.258;6.932;2023-07-31T13:47:08;8.50;;;5.20;;
65658;SDS011;60181;53.258;6.932;2023-07-31T13:51:18;8.50;;;5.20;;
65658;SDS011;60181;53.258;6.932;2023-07-31T13:55:28;8.20;;;4.60;;
65658;SDS011;60181;53.258;6.932;2023-07-31T13:59:38;8.20;;;4.60;;
65658;SDS011;60181;53.258;6.932;2023-07-31T14:03:48;7.50;;;4.80;;
65658;SDS011;60181;53.258;6.932;2023-07-31T14:07:58;7.50;;;4.80;;
65658;SDS011;60181;53.258;6.932;2023-07-31T14:12:08;7.50;;;4.80;;
65658;SDS011;60181;53.258;6.932;2023-07-31T14:16:18;8.80;;;4.90;;
65658;SDS011;60181;53.258;6.932;2023-07-31T14:20:28;8.80;;;4.90;;
65658;SDS011;60181;53.258;6.932;2023-07-31T14:24:38;7.40;;;4.40;;
65658;SDS011;60181;53.258;6.932;2023-07-31T14:28:48;7.40;;;4.40;;
65658;SDS011;60181;53.258;6.932;2023-07-31T14:32:58;7.40;;;4.40;;
65658;SDS011;60181;53.258;6.932;2023-07-31T14:37:08;7.50;;;4.50;;
65658;SDS011;60181;53.258;6.932;2023-07-31T14:41:18;7.50;;;4.50;;
65658;SDS011;60181;53.258;6.932;2023-07-31T14:45:28;7.80;;;4.20;;
65658;SDS011;60181;53.258;6.932;2023-07-31T14:49:38;7.80;;;4.20;;
65658;SDS011;60181;53.258;6.932;2023-07-31T14:53:48;7.70;;;4.30;;
65658;SDS011;60181;53.258;6.932;2023-07-31T14:57:58;7.70;;;4.30;;
65658;SDS011;60181;53.258;6.932;2023-07-31T15:02:08;7.70;;;4.30;;
65658;SDS011;60181;53.258;6.932;2023-07-31T15:06:18;7.50;;;4.50;;
65658;SDS011;60181;53.258;6.932;2023-07-31T15:10:28;7.50;;;4.50;;
65658;SDS011;60181;53.258;6.932;2023-07-31T15:14:38;7.60;;;4.40;;
65658;SDS011;60181;53.258;6.932;2023-07-31T15:18:48;7.60;;;4.40;;
65658;SDS011;60181;53.258;6.932;2023-07-31T15:22:58;7.60;;;4.40;;
65658;SDS011;60181;53.258;6.932;2023-07-31T15:27:08;8.20;;;4.20;;
65658;SDS011;60181;53.258;6.932;2023-07-31T15:31:18;8.20;;;4.20;;
65658;SDS011;60181;53.258;6.932;2023-07-31T15:35:28;7.20;;;4.00;;
65658;SDS011;60181;53.258;6.932;2023-07-31T15:39:38;7.20;;;4.00;;
65658;SDS011;60181;53.258;6.932;2023-07-31T15:43:48;6.90;;;4.00;;
65658;SDS011;60181;53.258;6.932;2023-07-31T15:47:58;6.90;;;4.00;;
65658;SDS011;60181;53.258;6.932;2023-07-31T15:52:08;6.90;;;4.00;;
65658;SDS011;60181;53.258;6.932;2023-07-31T15:56:18;7.20;;;3.80;;
65658;SDS011;60181;53.258;6.932;2023-07-31T16:00:28;7.20;;;3.80;;
65658;SDS011;60181;53.258;6.932;2023-07-31T16:04:38;6.50;;;3.90;;
65658;SDS011;60181;53.258;6.932;2023-07-31T16:08:48;6.50;;;3.90;;
65658;SDS011;60181;53.258;6.932;2023-07-31T16:12:58;6.50;;;3.90;;
65658;SDS011;60181;53.258;6.932;2023-07-31T16:17:08;6.00;;;3.80;;
65658;SDS011;60181;53.258;6.932;2023-07-31T16:21:18;6.00;;;3.80;;
65658;SDS011;60181;53.258;6.932;2023-07-31T16:25:28;7.70;;;3.80;;
65658;SDS011;60181;53.258;6.932;2023-07-31T16:29:38;7.70;;;3.80;;
65658;SDS011;60181;53.258;6.932;2023-07-31T16:33:48;6.70;;;3.80;;
65658;SDS011;60181;53.258;6.932;2023-07-31T16:37:58;6.70;;;3.80;;
65658;SDS011;60181;53.258;6.932;2023-07-31T16:42:08;6.70;;;3.80;;
65658;SDS011;60181;53.258;6.932;2023-07-31T16:46:18;8.10;;;3.50;;
65658;SDS011;60181;53.258;6.932;2023-07-31T16:50:28;8.10;;;3.50;;
65658;SDS011;60181;53.258;6.932;2023-07-31T16:54:38;6.10;;;3.50;;
65658;SDS011;60181;53.258;6.932;2023-07-31T16:58:48;6.10;;;3.50;;
65658;SDS011;60181;53.258;6.932;2023-07-31T17:02:58;6.10;;;3.50;;
65658;SDS011;60181;53.258;6.932;2023-07-31T17:07:08;6.90;;;3.70;;
65658;SDS011;60181;53.258;6.932;2023-07-31T17:11:18;6.90;;;3.70;;
65658;SDS011;60181;53.258;6.932;2023-07-31T17:15:28;7.40;;;3.70;;
65658;SDS011;60181;53.258;6.932;2023-07-31T17:19:38;7.40;;;3.70;;
65658;SDS011;60181;53.258;6.932;2023-07-31T17:23:48;7.70;;;3.80;;
65658;SDS011;60181;53.258;6.932;2023-07-31T17:27:58;7.70;;;3.80;;
65658;SDS011;60181;53.258;6.932;2023-07-31T17:32:08;7.70;;;3.80;;
65658;SDS011;60181;53.258;6.932;2023-07-31T17:36:18;7.20;;;3.80;;
65658;SDS011;60181;53.258;6.932;2023-07-31T17:40:28;7.20;;;3.80;;
65658;SDS011;60181;53.258;6.932;2023-07-31T17:44:38;7.80;;;3.80;;
65658;SDS011;60181;53.258;6.932;2023-07-31T17:48:48;7.80;;;3.80;;
65658;SDS011;60181;53.258;6.932;2023-07-31T17:52:58;7.80;;;3.80;;
65658;SDS011;60181;53.258;6.932;2023-07-31T17:57:08;8.00;;;3.60;;
65658;SDS011;60181;53.258;6.932;2023-07-31T18:01:18;8.00;;;3.60;;
65658;SDS011;60181;53.258;6.932;2023-07-31T18:05:27;7.80;;;3.40;;
65658;SDS011;60181;53.258;6.932;2023-07-31T18:09:38;7.80;;;3.40;;
65658;SDS011;60181;53.258;6.932;2023-07-31T18:13:48;7.80;;;3.80;;
65658;SDS011;60181;53.258;6.932;2023-07-31T18:17:58;7.80;;;3.80;;
65658;SDS011;60181;53.258;6.932;2023-07-31T18:22:07;7.80;;;3.80;;
65658;SDS011;60181;53.258;6.932;2023-07-31T18:26:17;7.30;;;3.60;;
65658;SDS011;60181;53.258;6.932;2023-07-31T18:30:28;7.30;;;3.60;;
65658;SDS011;60181;53.258;6.932;2023-07-31T18:34:38;7.40;;;3.40;;
65658;SDS011;60181;53.258;6.932;2023-07-31T18:38:48;7.40;;;3.40;;
65658;SDS011;60181;53.258;6.932;2023-07-31T18:42:58;7.40;;;3.40;;
65658;SDS011;60181;53.258;6.932;2023-07-31T18:47:07;7.10;;;3.60;;
65658;SDS011;60181;53.258;6.932;2023-07-31T18:51:18;7.10;;;3.60;;
65658;SDS011;60181;53.258;6.932;2023-07-31T18:55:27;6.80;;;3.50;;
65658;SDS011;60181;53.258;6.932;2023-07-31T18:59:37;6.80;;;3.50;;
65658;SDS011;60181;53.258;6.932;2023-07-31T19:03:47;8.10;;;3.50;;
65658;SDS011;60181;53.258;6.932;2023-07-31T19:07:57;8.10;;;3.50;;
65658;SDS011;60181;53.258;6.932;2023-07-31T19:12:08;8.10;;;3.50;;
65658;SDS011;60181;53.258;6.932;2023-07-31T19:16:17;6.00;;;3.20;;
65658;SDS011;60181;53.258;6.932;2023-07-31T19:20:27;6.00;;;3.20;;
65658;SDS011;60181;53.258;6.932;2023-07-31T19:24:37;6.00;;;3.00;;
65658;SDS011;60181;53.258;6.932;2023-07-31T19:28:47;6.00;;;3.00;;
65658;SDS011;60181;53.258;6.932;2023-07-31T19:32:58;6.00;;;3.00;;
65658;SDS011;60181;53.258;6.932;2023-07-31T19:37:07;6.70;;;3.20;;
65658;SDS011;60181;53.258;6.932;2023-07-31T19:41:17;6.70;;;3.20;;
65658;SDS011;60181;53.258;6.932;2023-07-31T19:45:27;5.40;;;3.30;;
65658;SDS011;60181;53.258;6.932;2023-07-31T19:49:37;5.40;;;3.30;;
65658;SDS011;60181;53.258;6.932;2023-07-31T19:53:47;5.70;;;3.30;;
65658;SDS011;60181;53.258;6.932;2023-07-31T19:57:57;5.70;;;3.30;;
65658;SDS011;60181;53.258;6.932;2023-07-31T20:02:08;5.70;;;3.30;;
65658;SDS011;60181;53.258;6.932;2023-07-31T20:06:17;4.80;;;3.20;;
65658;SDS011;60181;53.258;6.932;2023-07-31T20:10:27;4.80;;;3.20;;
65658;SDS011;60181;53.258;6.932;2023-07-31T20:14:37;4.90;;;3.10;;
65658;SDS011;60181;53.258;6.932;2023-07-31T20:18:48;4.90;;;3.10;;
65658;SDS011;60181;53.258;6.932;2023-07-31T20:22:58;4.90;;;3.10;;
65658;SDS011;60181;53.258;6.932;2023-07-31T20:27:07;5.00;;;3.20;;
65658;SDS011;60181;53.258;6.932;2023-07-31T20:31:17;5.00;;;3.20;;
65658;SDS011;60181;53.258;6.932;2023-07-31T20:35:27;8.90;;;3.60;;
65658;SDS011;60181;53.258;6.932;2023-07-31T20:39:37;8.90;;;3.60;;
65658;SDS011;60181;53.258;6.932;2023-07-31T20:43:47;8.80;;;3.20;;
65658;SDS011;60181;53.258;6.932;2023-07-31T20:47:57;8.80;;;3.20;;
65658;SDS011;60181;53.258;6.932;2023-07-31T20:52:07;8.80;;;3.20;;
65658;SDS011;60181;53.258;6.932;2023-07-31T20:56:18;9.80;;;3.00;;
65658;SDS011;60181;53.258;6.932;2023-07-31T21:00:27;9.80;;;3.00;;
65658;SDS011;60181;53.258;6.932;2023-07-31T21:04:37;9.20;;;2.10;;
65658;SDS011;60181;53.258;6.932;2023-07-31T21:08:47;9.20;;;2.10;;
65658;SDS011;60181;53.258;6.932;2023-07-31T21:12:57;9.20;;;2.10;;
65658;SDS011;60181;53.258;6.932;2023-07-31T21:17:07;6.90;;;2.40;;
65658;SDS011;60181;53.258;6.932;2023-07-31T21:21:17;6.90;;;2.40;;
65658;SDS011;60181;53.258;6.932;2023-07-31T21:25:27;7.40;;;2.30;;
65658;SDS011;60181;53.258;6.932;2023-07-31T21:29:38;7.40;;;2.30;;
65658;SDS011;60181;53.258;6.932;2023-07-31T21:33:47;6.20;;;2.10;;
65658;SDS011;60181;53.258;6.932;2023-07-31T21:37:57;6.20;;;2.10;;
65658;SDS011;60181;53.258;6.932;2023-07-31T21:42:07;6.20;;;2.10;;
65658;SDS011;60181;53.258;6.932;2023-07-31T21:46:17;5.50;;;2.20;;
65658;SDS011;60181;53.258;6.932;2023-07-31T21:50:27;5.50;;;2.20;;
65658;SDS011;60181;53.258;6.932;2023-07-31T21:54:37;5.50;;;2.20;;
65658;SDS011;60181;53.258;6.932;2023-07-31T21:58:47;5.50;;;2.20;;
65658;SDS011;60181;53.258;6.932;2023-07-31T22:02:57;5.50;;;2.20;;
65658;SDS011;60181;53.258;6.932;2023-07-31T22:07:07;5.80;;;2.20;;
65658;SDS011;60181;53.258;6.932;2023-07-31T22:11:17;5.80;;;2.20;;
65658;SDS011;60181;53.258;6.932;2023-07-31T22:15:27;5.20;;;2.00;;
65658;SDS011;60181;53.258;6.932;2023-07-31T22:19:37;5.20;;;2.00;;
65658;SDS011;60181;53.258;6.932;2023-07-31T22:23:47;6.20;;;2.30;;
65658;SDS011;60181;53.258;6.932;2023-07-31T22:27:57;6.20;;;2.30;;
65658;SDS011;60181;53.258;6.932;2023-07-31T22:32:08;6.20;;;2.30;;
65658;SDS011;60181;53.258;6.932;2023-07-31T22:36:17;6.90;;;2.40;;
65658;SDS011;60181;53.258;6.932;2023-07-31T22:40:27;6.90;;;2.40;;
65658;SDS011;60181;53.258;6.932;2023-07-31T22:44:37;9.60;;;2.70;;
65658;SDS011;60181;53.258;6.932;2023-07-31T22:48:47;9.60;;;2.70;;
65658;SDS011;60181;53.258;6.932;2023-07-31T22:52:57;9.60;;;2.70;;
65658;SDS011;60181;53.258;6.932;2023-07-31T22:57:07;9.60;;;2.70;;
65658;SDS011;60181;53.258;6.932;2023-07-31T23:01:17;9.60;;;2.70;;
65658;SDS011;60181;53.258;6.932;2023-07-31T23:05:27;9.30;;;2.80;;
65658;SDS011;60181;53.258;6.932;2023-07-31T23:09:37;9.30;;;2.80;;
65658;SDS011;60181;53.258;6.932;2023-07-31T23:13:47;8.40;;;2.60;;
65658;SDS011;60181;53.258;6.932;2023-07-31T23:17:57;8.40;;;2.60;;
65658;SDS011;60181;53.258;6.932;2023-07-31T23:22:07;8.40;;;2.60;;
65658;SDS011;60181;53.258;6.932;2023-07-31T23:26:17;9.80;;;2.50;;
65658;SDS011;60181;53.258;6.932;2023-07-31T23:30:27;9.80;;;2.50;;
65658;SDS011;60181;53.258;6.932;2023-07-31T23:34:37;14.30;;;2.90;;
65658;SDS011;60181;53.258;6.932;2023-07-31T23:38:47;14.30;;;2.90;;
65658;SDS011;60181;53.258;6.932;2023-07-31T23:42:57;14.30;;;2.90;;
65658;SDS011;60181;53.258;6.932;2023-07-31T23:47:07;13.10;;;3.40;;
65658;SDS011;60181;53.258;6.932;2023-07-31T23:51:17;13.10;;;3.40;;
65658;SDS011;60181;53.258;6.932;2023-07-31T23:55:27;11.10;;;3.10;;
65658;SDS011;60181;53.258;6.932;2023-07-31T23:59:37;11.10;;;3.10;;
